Lowell Highlands, MA

10 Minute Time Series

22-Jan-2019 04:10 PM

TimeTempHumidityDewpointBarometerWindSpeedWindGustWind DirRain
22-Jan-2019 12:10 AM3.6°F73%-3.1°F30.146 inHg9 mph18 mph315° (NW)0.00 in
22-Jan-2019 12:20 AM3.6°F74%-2.8°F30.158 inHg8 mph15 mph292° (WNW)0.00 in
22-Jan-2019 12:30 AM3.6°F73%-3.1°F30.163 inHg7 mph15 mph315° (NW)0.00 in
22-Jan-2019 12:40 AM3.7°F73%-3.0°F30.164 inHg8 mph16 mph292° (WNW)0.00 in
22-Jan-2019 12:50 AM3.7°F73%-3.0°F30.174 inHg10 mph17 mph292° (WNW)0.00 in
22-Jan-2019 01:00 AM3.7°F73%-3.0°F30.181 inHg7 mph15 mph315° (NW)0.00 in
22-Jan-2019 01:10 AM3.7°F74%-2.7°F30.178 inHg6 mph14 mph315° (NW)0.00 in
22-Jan-2019 01:20 AM3.7°F73%-3.0°F30.185 inHg7 mph14 mph315° (NW)0.00 in
22-Jan-2019 01:30 AM3.8°F73%-2.9°F30.188 inHg6 mph14 mph292° (WNW)0.00 in
22-Jan-2019 01:40 AM4.1°F73%-2.6°F30.190 inHg8 mph23 mph315° (NW)0.00 in
22-Jan-2019 01:50 AM4.3°F73%-2.4°F30.195 inHg8 mph18 mph292° (WNW)0.00 in
22-Jan-2019 02:00 AM4.4°F73%-2.3°F30.202 inHg7 mph15 mph315° (NW)0.00 in
22-Jan-2019 02:10 AM4.5°F73%-2.2°F30.216 inHg7 mph15 mph315° (NW)0.00 in
22-Jan-2019 02:20 AM4.7°F73%-2.0°F30.218 inHg9 mph18 mph315° (NW)0.00 in
22-Jan-2019 02:30 AM4.8°F72%-2.2°F30.219 inHg10 mph26 mph315° (NW)0.00 in
22-Jan-2019 02:40 AM5.0°F72%-2.0°F30.230 inHg11 mph23 mph315° (NW)0.00 in
22-Jan-2019 02:50 AM4.7°F72%-2.3°F30.244 inHg7 mph20 mph292° (WNW)0.00 in
22-Jan-2019 03:00 AM4.5°F72%-2.5°F30.248 inHg7 mph11 mph292° (WNW)0.00 in
22-Jan-2019 03:10 AM4.3°F73%-2.4°F30.259 inHg6 mph14 mph292° (WNW)0.00 in
22-Jan-2019 03:20 AM4.2°F73%-2.5°F30.259 inHg6 mph10 mph292° (WNW)0.00 in
22-Jan-2019 03:30 AM4.1°F73%-2.6°F30.266 inHg7 mph13 mph315° (NW)0.00 in
22-Jan-2019 03:40 AM4.1°F73%-2.6°F30.275 inHg7 mph13 mph315° (NW)0.00 in
22-Jan-2019 03:50 AM4.1°F73%-2.6°F30.276 inHg6 mph13 mph315° (NW)0.00 in
22-Jan-2019 04:00 AM4.0°F73%-2.7°F30.289 inHg6 mph13 mph292° (WNW)0.00 in
22-Jan-2019 04:10 AM3.9°F73%-2.8°F30.296 inHg7 mph13 mph315° (NW)0.00 in
22-Jan-2019 04:20 AM4.0°F73%-2.7°F30.296 inHg6 mph10 mph315° (NW)0.00 in
22-Jan-2019 04:30 AM3.9°F73%-2.8°F30.304 inHg6 mph10 mph315° (NW)0.00 in
22-Jan-2019 04:40 AM4.0°F73%-2.7°F30.319 inHg5 mph9 mph292° (WNW)0.00 in
22-Jan-2019 04:50 AM3.9°F74%-2.5°F30.330 inHg3 mph7 mph292° (WNW)0.00 in
22-Jan-2019 05:00 AM3.8°F74%-2.6°F30.332 inHg5 mph11 mph292° (WNW)0.00 in
22-Jan-2019 05:10 AM3.9°F74%-2.5°F30.341 inHg5 mph9 mph315° (NW)0.00 in
22-Jan-2019 05:20 AM4.1°F73%-2.6°F30.349 inHg6 mph11 mph292° (WNW)0.00 in
22-Jan-2019 05:30 AM4.1°F74%-2.3°F30.356 inHg3 mph7 mph292° (WNW)0.00 in
22-Jan-2019 05:40 AM4.2°F74%-2.2°F30.360 inHg4 mph7 mph292° (WNW)0.00 in
22-Jan-2019 05:50 AM4.3°F74%-2.1°F30.368 inHg4 mph11 mph292° (WNW)0.00 in
22-Jan-2019 06:00 AM4.3°F74%-2.1°F30.375 inHg4 mph8 mph270° (W)0.00 in
22-Jan-2019 06:10 AM4.4°F73%-2.3°F30.386 inHg3 mph6 mph248° (WSW)0.00 in
22-Jan-2019 06:20 AM4.4°F73%-2.3°F30.398 inHg2 mph6 mph248° (WSW)0.00 in
22-Jan-2019 06:30 AM4.4°F73%-2.3°F30.402 inHg2 mph7 mph248° (WSW)0.00 in
22-Jan-2019 06:40 AM4.3°F74%-2.1°F30.410 inHg2 mph4 mph292° (WNW)0.00 in
22-Jan-2019 06:50 AM4.5°F74%-1.9°F30.418 inHg3 mph7 mph292° (WNW)0.00 in
22-Jan-2019 07:00 AM4.6°F74%-1.8°F30.421 inHg3 mph9 mph292° (WNW)0.00 in
22-Jan-2019 07:10 AM5.0°F73%-1.7°F30.430 inHg4 mph8 mph292° (WNW)0.00 in
22-Jan-2019 07:20 AM5.4°F73%-1.3°F30.436 inHg6 mph10 mph292° (WNW)0.00 in
22-Jan-2019 07:30 AM5.6°F73%-1.1°F30.449 inHg4 mph10 mph292° (WNW)0.00 in
22-Jan-2019 07:40 AM5.6°F72%-1.4°F30.465 inHg2 mph6 mph248° (WSW)0.00 in
22-Jan-2019 07:50 AM5.5°F72%-1.5°F30.463 inHg2 mph4 mph225° (SW)0.00 in
22-Jan-2019 08:00 AM5.7°F72%-1.3°F30.465 inHg2 mph4 mph225° (SW)0.00 in
22-Jan-2019 08:10 AM6.1°F73%-0.7°F30.468 inHg2 mph4 mph248° (WSW)0.00 in
22-Jan-2019 08:20 AM6.8°F73%0.0°F30.473 inHg2 mph5 mph292° (WNW)0.00 in
22-Jan-2019 08:30 AM7.7°F72%0.6°F30.481 inHg2 mph5 mph292° (WNW)0.00 in
22-Jan-2019 08:40 AM8.6°F71%1.2°F30.485 inHg3 mph7 mph315° (NW)0.00 in
22-Jan-2019 08:50 AM9.4°F71%1.9°F30.482 inHg4 mph8 mph292° (WNW)0.00 in
22-Jan-2019 09:00 AM10.2°F71%2.7°F30.489 inHg4 mph8 mph315° (NW)0.00 in
22-Jan-2019 09:10 AM11.0°F69%2.9°F30.493 inHg5 mph11 mph315° (NW)0.00 in
22-Jan-2019 09:20 AM11.6°F69%3.4°F30.496 inHg5 mph16 mph292° (WNW)0.00 in
22-Jan-2019 09:30 AM12.2°F68%3.7°F30.498 inHg5 mph10 mph315° (NW)0.00 in
22-Jan-2019 09:40 AM12.7°F68%4.2°F30.506 inHg5 mph9 mph315° (NW)0.00 in
22-Jan-2019 09:50 AM13.1°F66%3.9°F30.506 inHg5 mph14 mph315° (NW)0.00 in
22-Jan-2019 10:00 AM13.4°F65%3.9°F30.510 inHg6 mph13 mph315° (NW)0.00 in
22-Jan-2019 10:10 AM13.7°F66%4.5°F30.513 inHg6 mph15 mph338° (NNW)0.00 in
22-Jan-2019 10:20 AM14.7°F65%5.1°F30.517 inHg5 mph10 mph292° (WNW)0.00 in
22-Jan-2019 10:30 AM14.9°F64%5.0°F30.521 inHg5 mph12 mph338° (NNW)0.00 in
22-Jan-2019 10:40 AM15.5°F63%5.2°F30.518 inHg5 mph12 mph315° (NW)0.00 in
22-Jan-2019 10:50 AM15.9°F62%5.2°F30.515 inHg5 mph12 mph315° (NW)0.00 in
22-Jan-2019 11:00 AM16.2°F61%5.1°F30.513 inHg6 mph12 mph315° (NW)0.00 in
22-Jan-2019 11:10 AM16.9°F60%5.4°F30.509 inHg5 mph10 mph315° (NW)0.00 in
22-Jan-2019 11:20 AM17.5°F59%5.6°F30.510 inHg5 mph8 mph315° (NW)0.00 in
22-Jan-2019 11:30 AM18.0°F57%5.4°F30.505 inHg5 mph12 mph315° (NW)0.00 in
22-Jan-2019 11:40 AM18.8°F54%4.9°F30.512 inHg5 mph10 mph292° (WNW)0.00 in
22-Jan-2019 11:50 AM19.4°F54%5.5°F30.514 inHg4 mph9 mph292° (WNW)0.00 in
22-Jan-2019 12:00 PM20.0°F50%4.4°F30.513 inHg4 mph9 mph225° (SW)0.00 in
22-Jan-2019 12:10 PM20.4°F50%4.8°F30.505 inHg4 mph8 mph292° (WNW)0.01 in
22-Jan-2019 12:20 PM20.4°F49%4.3°F30.505 inHg5 mph12 mph292° (WNW)0.00 in
22-Jan-2019 12:30 PM20.9°F47%3.9°F30.500 inHg5 mph10 mph315° (NW)0.00 in
22-Jan-2019 12:40 PM22.0°F46%4.4°F30.499 inHg4 mph10 mph315° (NW)0.00 in
22-Jan-2019 12:50 PM22.4°F45%4.3°F30.497 inHg5 mph11 mph315° (NW)0.00 in
22-Jan-2019 01:00 PM22.5°F42%2.9°F30.494 inHg5 mph11 mph292° (WNW)0.01 in
22-Jan-2019 01:10 PM22.7°F40%2.0°F30.498 inHg6 mph11 mph315° (NW)0.00 in
22-Jan-2019 01:20 PM23.0°F40%2.3°F30.500 inHg7 mph14 mph292° (WNW)0.00 in
22-Jan-2019 01:30 PM23.1°F40%2.4°F30.499 inHg7 mph14 mph292° (WNW)0.00 in
22-Jan-2019 01:40 PM23.1°F39%1.9°F30.503 inHg7 mph15 mph315° (NW)0.00 in
22-Jan-2019 01:50 PM23.4°F40%2.7°F30.498 inHg6 mph12 mph292° (WNW)0.00 in
22-Jan-2019 02:00 PM24.0°F40%3.2°F30.502 inHg5 mph10 mph315° (NW)0.00 in
22-Jan-2019 02:10 PM24.3°F38%2.4°F30.507 inHg5 mph13 mph315° (NW)0.00 in
22-Jan-2019 02:20 PM24.4°F39%3.0°F30.512 inHg5 mph11 mph292° (WNW)0.00 in
22-Jan-2019 02:30 PM24.8°F40%3.9°F30.512 inHg4 mph10 mph292° (WNW)0.00 in
22-Jan-2019 02:40 PM24.5°F38%2.6°F30.511 inHg7 mph14 mph315° (NW)0.00 in
22-Jan-2019 02:50 PM24.3°F36%1.2°F30.513 inHg7 mph16 mph315° (NW)0.00 in
22-Jan-2019 03:00 PM24.4°F38%2.5°F30.516 inHg5 mph11 mph315° (NW)0.00 in
22-Jan-2019 03:10 PM24.7°F39%3.3°F30.517 inHg4 mph9 mph292° (WNW)0.00 in
22-Jan-2019 03:20 PM24.7°F36%1.6°F30.516 inHg6 mph12 mph292° (WNW)0.00 in
22-Jan-2019 03:30 PM24.7°F37%2.2°F30.522 inHg5 mph12 mph338° (NNW)0.00 in
22-Jan-2019 03:40 PM24.7°F37%2.2°F30.523 inHg5 mph11 mph315° (NW)0.00 in
22-Jan-2019 03:50 PM24.8°F37%2.3°F30.528 inHg5 mph12 mph315° (NW)0.00 in
22-Jan-2019 04:00 PM25.0°F37%2.4°F30.529 inHg5 mph10 mph315° (NW)0.00 in
22-Jan-2019 04:10 PM24.8°F37%2.3°F30.528 inHg5 mph9 mph315° (NW)0.00 in